KSJT/SJT METAR and TAF weather

Enter ICAO airport designator
Station Type Date Time Source
KSJT METAR 2020/01/20 21:51 UTC NOAA

KSJT 202151Z 16005KT 10SM FEW100 15/M06 A3042 RMK AO2 SLP301 T01501061


Station Type Date Time Source
KSJT Decoded METAR 2020/01/20 21:51 UTC NOAA

MATHIS FIELD, TX, United States (KSJT) 31-21N 100-30W 581M
Jan 20, 2020 - 04:51 PM EST / 2020.01.20 2151 UTC
Wind: from the SSE (160 degrees) at 6 MPH (5 KT):0
Visibility: 10 mile(s):0
Sky conditions: mostly clear
Temperature: 59.0 F (15.0 C)
Dew Point: 21.0 F (-6.1 C)
Relative Humidity: 22%
Pressure (altimeter): 30.42 in. Hg (1030 hPa)
ob: KSJT 202151Z 16005KT 10SM FEW100 15/M06 A3042 RMK AO2 SLP301 T01501061
cycle: 22

Station Type Date Time Source
KSJT TAF 2020/01/20 18:22 UTC NOAA

TAF KSJT 201720Z 2018/2118 17006KT P6SM BKN100 OVC250

Example: see airport list